CCGS Samuel Risley — CG2960 — position and weather

sailwx.info

Track history (hours):
 
Tides and Currents Weather Stations Pressure Air Temp Water Temp Dewpoint Dewpoint Depression Visibility Wind Speed Wind Dir Waves Ship Positions

CCGS Samuel Risley (Canada)

Medium Navaids Tender - Light Icebreaker

Last reported at 2017-Apr-28 11:00 UTC. Time now 2017-Apr-28 12:16 UTC.
Position N 45°18' W 080°18'.

Length 69.73 m; beam 13.7 m; draft 5.2 m.

Type: SAR. MMSI: 316001890.

Wind from 200 at 19 knots

Barometer 1011.5 mb
Air temperature 6.0 ° C
Dewpoint 2.8 ° C

Date/timePositionNaut miles runAvg speedWind from/ knotsBaromVisibWave heightAir tempDewpointWater temp
2017-Apr-28 11:00N 45°18' W 080°18'1312.7 200 / 191011.5 6.0 2.8
2017-Apr-28 10:00N 45°18' W 080°00'0 0.0 230 / 61011.5 6.5 2.7
2017-Apr-28 09:00N 45°18' W 080°00'0 0.0 250 / 71011.2 6.8 2.4
2017-Apr-28 08:00N 45°18' W 080°00'0 0.0 270 / 101009.9 6.9 2.4
2017-Apr-28 07:00N 45°18' W 080°00'0 0.0 270 / 81009.6 6.7 3.3
2017-Apr-28 06:00N 45°18' W 080°00'0 0.0 260 / 111008.8 7.1 3.6
2017-Apr-28 05:00N 45°18' W 080°00'0 0.0 270 / 111007.5 7.9 4.4
2017-Apr-28 04:00N 45°18' W 080°00'0 0.0 260 / 91006.1 8.8 5.1
2017-Apr-28 03:00N 45°18' W 080°00'0 0.0 260 / 101004.9 9.3 5.7
2017-Apr-28 02:00N 45°18' W 080°00'0 0.0 250 / 111004.0 11.4 6.8
2017-Apr-28 01:00N 45°18' W 080°00'0 0.0 260 / 101002.3 14.310.3
2017-Apr-28 00:00N 45°18' W 080°00'0 0.0 150 / 71000.7 14.814.7
2017-Apr-27 23:00N 45°18' W 080°00'0 0.0 150 / 101000.6 14.814.4
2017-Apr-27 22:00N 45°18' W 080°00'0 0.0 220 / 111000.9 14.414.2
2017-Apr-27 21:00N 45°18' W 080°00'0 0.0 150 / 15996.7 25.813.0
2017-Apr-27 20:00N 45°18' W 080°00'0 0.0 140 / 16998.6 25.912.8
2017-Apr-27 19:00N 45°18' W 080°00'0 0.0 150 / 17999.3 26.213.4
2017-Apr-27 18:00N 45°18' W 080°00'0 0.0 160 / 111000.0 25.313.4
2017-Apr-27 17:00N 45°18' W 080°00'0 0.0 150 / 91000.9 24.913.7
2017-Apr-27 16:00N 45°18' W 080°00'0 0.0 140 / 121001.4 24.313.4
2017-Apr-27 15:00N 45°18' W 080°00'0 0.0 130 / 111001.7 22.913.7
2017-Apr-27 14:00N 45°18' W 080°00'0 0.0 130 / 111002.6 20.213.7
2017-Apr-27 13:00N 45°18' W 080°00'1312.7 130 / 91002.8 18.013.4
2017-Apr-27 12:00N 45°18' W 080°18'8 8.4 120 / 121002.2 15.312.8
2017-Apr-27 11:00N 45°18' W 080°30'1010.3 120 / 201001.6 9.3 9.2
2017-Apr-27 10:00N 45°24' W 080°42'7 7.3 120 / 221001.3 8.4 8.3
2017-Apr-27 09:00N 45°30' W 080°48'7 7.3 130 / 231001.0 7.8 7.8
2017-Apr-27 08:00N 45°36' W 080°54'1010.3 130 / 231001.0 7.4 7.4
2017-Apr-27 07:00N 45°42' W 081°06'7 7.3 130 / 221001.6 6.9 6.8
2017-Apr-27 06:00N 45°48' W 081°12'6 6.0 130 / 221001.8 7.1 7.0
2017-Apr-27 05:00N 45°54' W 081°12'8 8.4 120 / 191002.3 7.3 7.3
2017-Apr-27 04:00N 45°54' W 081°24'4 4.2 110 / 181002.6 7.9 7.8
2017-Apr-27 03:00N 45°54' W 081°30'4 4.2 110 / 171002.7 7.1 7.0
2017-Apr-27 02:00N 45°54' W 081°36'4 4.2 100 / 121003.4 7.2 7.1
2017-Apr-27 01:00N 45°54' W 081°42'8 8.4 120 / 161003.2 9.1 8.5
2017-Apr-27 00:00N 45°54' W 081°54'0 0.0 100 / 171002.9 10.0 8.9
2017-Apr-26 23:00N 45°54' W 081°54'0 0.0 090 / 151003.6 10.4 8.9
2017-Apr-26 22:00N 45°54' W 081°54'0 0.0 110 / 141003.8 12.810.0
2017-Apr-26 21:00N 45°54' W 081°54'0 0.0 120 / 191003.0 12.1 9.7
2017-Apr-26 20:00N 45°54' W 081°54'0 0.0 130 / 191003.7 13.910.5
2017-Apr-26 19:00N 45°54' W 081°54'0 0.0 120 / 181005.3 11.1 9.7
2017-Apr-26 18:00N 45°54' W 081°54'0 0.0 080 / 171006.3 7.9 7.9
2017-Apr-26 17:00N 45°54' W 081°54'0 0.0 080 / 131008.0 7.4 7.3
2017-Apr-26 16:00N 45°54' W 081°54'0 0.0 090 / 151008.3 6.9 6.8
2017-Apr-26 15:00N 45°54' W 081°54'0 0.0 080 / 111008.7 6.7 6.6
2017-Apr-26 14:00N 45°54' W 081°54'0 0.0 100 / 91009.1 7.1 7.0
2017-Apr-26 13:00N 45°54' W 081°54'0 0.0 120 / 81009.3 7.5 7.5
2017-Apr-26 12:00N 45°54' W 081°54'0 0.0 110 / 141008.5 7.3 7.3
2017-Apr-26 11:00N 45°54' W 081°54'0 0.0 110 / 111009.2 7.5 7.5
2017-Apr-26 10:00N 45°54' W 081°54'0 0.0 110 / 141009.2 7.6 7.6
2017-Apr-26 09:00N 45°54' W 081°54'0 0.0 110 / 111009.6 7.2 7.2
2017-Apr-26 08:00N 45°54' W 081°54'0 0.0 100 / 101010.0 7.0 7.0
2017-Apr-26 07:00N 45°54' W 081°54'0 0.0 110 / 101010.2 6.9 6.8
2017-Apr-26 06:00N 45°54' W 081°54'0 0.0 100 / 101010.6 6.6 6.5
2017-Apr-26 05:00N 45°54' W 081°54'0 0.0 090 / 91010.7 6.3 6.2
2017-Apr-26 04:00N 45°54' W 081°54'0 0.0 090 / 101011.1 6.1 6.0
2017-Apr-26 02:00N 45°54' W 081°54'0 0.0 100 / 101011.1 6.5 6.4
2017-Apr-26 01:00N 45°54' W 081°54'0 0.0 110 / 111010.9 6.9 6.9
2017-Apr-26 00:00N 45°54' W 081°54'0 0.0 090 / 91011.3 6.5 6.4
2017-Apr-25 23:00N 45°54' W 081°54'0 0.0 100 / 81011.8 6.7 6.6
2017-Apr-25 22:00N 45°54' W 081°54'0 0.0 100 / 71011.9 6.7 6.7
2017-Apr-25 21:00N 45°54' W 081°54'4 4.2 130 / 101012.2 8.4 7.4
2017-Apr-25 20:00N 45°54' W 081°48'7 7.3 110 / 81013.0 5.7 5.7
2017-Apr-25 19:00N 46°00' W 081°42'6 6.0 100 / 91013.9 5.0 4.9
2017-Apr-25 18:00N 45°54' W 081°42'0 0.0 130 / 111014.2 6.3 5.6
2017-Apr-25 17:00N 45°54' W 081°42'4 4.2 120 / 141015.0 6.8 3.1
2017-Apr-25 16:00N 45°54' W 081°36'6 6.0 140 / 141015.1 5.5 1.2
2017-Apr-25 15:00N 45°48' W 081°36'6 6.0 100 / 81015.5 4.5 1.3
2017-Apr-25 14:00N 45°54' W 081°36'4 4.2 090 / 131015.8 5.7-0.0
2017-Apr-25 13:00N 45°54' W 081°42'0 0.0 080 / 161015.9 5.2-0.2
2017-Apr-25 12:00N 45°54' W 081°42'0 0.0 080 / 81016.3 5.1-1.2
2017-Apr-25 11:00N 45°54' W 081°42'0 0.0 090 / 71016.5 4.4-0.9
2017-Apr-25 10:00N 45°54' W 081°42'0 0.0 100 / 171016.1 4.6-1.0
2017-Apr-25 09:00N 45°54' W 081°42'0 0.0 090 / 131016.6 4.7-1.2
2017-Apr-25 07:00N 45°54' W 081°42'0 0.0 090 / 111017.4 5.4-1.1
2017-Apr-25 06:00N 45°54' W 081°42'0 0.0 090 / 151017.2 4.9-2.1
2017-Apr-25 05:00N 45°54' W 081°42'0 0.0 080 / 151017.4 5.2-2.7
2017-Apr-25 04:00N 45°54' W 081°42'0 0.0 070 / 131017.7 6.0-2.2
2017-Apr-25 03:00N 45°54' W 081°42'0 0.0 070 / 151017.9 6.9-1.9
2017-Apr-25 02:00N 45°54' W 081°42'8 8.4 070 / 111018.5 7.3-1.4
2017-Apr-25 01:00N 45°54' W 081°30'8 8.4 060 / 141018.6 7.3-0.5
2017-Apr-25 00:00N 45°54' W 081°18'1413.9 060 / 151018.9 7.9-1.0
2017-Apr-24 23:00N 45°48' W 081°00'8 8.4 050 / 121019.4 7.7-0.1
2017-Apr-24 22:00N 45°48' W 080°48'7 7.3 050 / 121019.6 11.1-0.9
2017-Apr-24 21:00N 45°42' W 080°42'0 0.0 050 / 111020.3 11.4-0.9
2017-Apr-24 20:00N 45°42' W 080°42'0 0.0 040 / 101021.1 10.3-1.5
2017-Apr-24 19:00N 45°42' W 080°42'0 0.0 050 / 91022.1 9.3-2.8
2017-Apr-24 18:00N 45°42' W 080°42'0 0.0 020 / 71022.8 7.9-4.2
2017-Apr-24 17:00N 45°42' W 080°42'0 0.0 040 / 111023.4 6.6-5.4
2017-Apr-24 16:00N 45°42' W 080°42'0 0.0 040 / 111023.9 4.9-6.2
2017-Apr-24 15:00N 45°42' W 080°42'0 0.0 060 / 141024.3 3.4-7.0
2017-Apr-24 14:00N 45°42' W 080°42'0 0.0 060 / 141024.5 2.3-7.1
2017-Apr-24 13:00N 45°42' W 080°42'6 6.0 070 / 151024.7 1.3-7.1
2017-Apr-24 12:00N 45°48' W 080°42'0 0.0 050 / 141024.1 0.1-6.0
2017-Apr-24 11:00N 45°48' W 080°42'0 0.0 050 / 131024.1 -0.2-5.5
2017-Apr-24 10:00N 45°48' W 080°42'0 0.0 060 / 131023.3 -0.3-5.4
2017-Apr-24 09:00N 45°48' W 080°42'0 0.0 070 / 121023.3 -0.0-4.4
2017-Apr-24 08:00N 45°48' W 080°42'0 0.0 050 / 121022.5 0.1-4.2
2017-Apr-24 07:00N 45°48' W 080°42'0 0.0 050 / 131022.4 0.3-3.7
2017-Apr-24 06:00N 45°48' W 080°42'0 0.0 040 / 151022.4 0.6-5.0
2017-Apr-24 05:00N 45°48' W 080°42'0 0.0 040 / 161022.7 1.0-3.9
2017-Apr-24 04:00N 45°48' W 080°42'0 0.0 050 / 161022.2 2.2-1.3
2017-Apr-24 03:00N 45°48' W 080°42'0 0.0 040 / 141021.8 3.4-0.5
2017-Apr-24 02:00N 45°48' W 080°42'0 0.0 040 / 171021.4 4.5-0.4
2017-Apr-24 01:00N 45°48' W 080°42'0 0.0 020 / 141020.4 6.1-0.2
2017-Apr-24 00:00N 45°48' W 080°42'0 0.0 030 / 101019.9 7.6 0.3
2017-Apr-23 23:00N 45°48' W 080°42'0 0.0 350 / 111019.5 7.5 0.6
2017-Apr-23 22:00N 45°48' W 080°42'0 0.0 350 / 91019.3 7.8 1.2
2017-Apr-23 21:00N 45°48' W 080°42'6 6.0 350 / 101018.7 7.3 1.8
2017-Apr-23 20:00N 45°42' W 080°42'0 0.0 350 / 141018.2 6.5 3.4
2017-Apr-23 19:00N 45°42' W 080°42'0 0.0 270 / 101017.9 4.4 2.1
2017-Apr-23 18:00N 45°42' W 080°42'7 7.3 200 / 41017.8 3.6 2.1
2017-Apr-23 17:00N 45°36' W 080°36'6 6.0 270 / 101018.0 6.8 2.4
2017-Apr-23 16:00N 45°30' W 080°36'4 4.2 260 / 131017.7 6.1 1.3
2017-Apr-23 15:00N 45°30' W 080°42'1312.6 250 / 161017.5 5.4 1.3
2017-Apr-23 14:00N 45°30' W 081°00'7 7.3 220 / 131016.8 5.2 0.8
2017-Apr-23 13:00N 45°24' W 080°54'1312.7 160 / 131017.0 4.3-0.2
2017-Apr-23 12:00N 45°12' W 080°48'1312.7 150 / 121018.1 3.6-0.1
2017-Apr-23 11:00N 45°00' W 080°42'7 7.4 160 / 121018.3 3.1-0.5
2017-Apr-23 10:00N 44°54' W 080°36'4 4.3 210 / 151018.4 3.0-1.0
2017-Apr-23 09:00N 44°54' W 080°30'0 0.0 220 / 91018.8 2.8-0.9
2017-Apr-23 08:00N 44°54' W 080°30'0 0.0 240 / 41019.1 2.5-0.5
2017-Apr-23 07:00N 44°54' W 080°30'0 0.0 210 / 81019.2 2.6-0.5
2017-Apr-23 06:00N 44°54' W 080°30'0 0.0 190 / 71019.6 3.3-1.2
2017-Apr-23 05:00N 44°54' W 080°30'0 0.0 210 / 81019.8 3.3-0.7
2017-Apr-23 04:00N 44°54' W 080°30'0 0.0 230 / 81020.0 4.0-1.4
2017-Apr-23 03:00N 44°54' W 080°30'0 0.0 230 / 91020.4 4.5-1.6
2017-Apr-23 02:00N 44°54' W 080°30'1312.8 250 / 151020.1 5.4-1.5
2017-Apr-23 01:00N 44°54' W 080°12'4 4.3 230 / 71020.0 4.1-0.3
2017-Apr-23 00:00N 44°54' W 080°06'9 8.5 290 / 61020.0 5.3-1.6
2017-Apr-22 23:00N 44°54' W 079°54'6 6.0 280 / 131019.2 8.0-3.3
2017-Apr-22 22:00N 44°48' W 079°54'6 6.0 310 / 91019.7 9.1-1.7
2017-Apr-22 21:00N 44°54' W 079°54'0 0.0 270 / 131020.1 4.9-0.3
2017-Apr-22 20:00N 44°54' W 079°54'0 0.0 270 / 121020.3 4.3 1.1
2017-Apr-22 19:00N 44°54' W 079°54'0 0.0 270 / 101020.6 4.2 1.5
2017-Apr-22 18:00N 44°54' W 079°54'0 0.0 280 / 141020.6 4.0 0.9
2017-Apr-22 17:00N 44°54' W 079°54'0 0.0 270 / 141020.4 3.6 1.3
2017-Apr-22 16:00N 44°54' W 079°54'0 0.0 280 / 131020.9 3.3 1.5
2017-Apr-22 15:00N 44°54' W 079°54'0 0.0 310 / 11020.7 3.7 1.3
2017-Apr-22 14:00N 44°54' W 079°54'0 0.0 290 / 121019.7 3.1 1.2
2017-Apr-22 13:00N 44°54' W 079°54'0 0.0 330 / 51019.9 4.0 0.8
2017-Apr-22 12:00N 44°54' W 079°54'0 0.0 310 / 131019.3 3.2 1.6
2017-Apr-22 11:00N 44°54' W 079°54'0 0.0 320 / 111018.5 3.3 1.3
2017-Apr-22 10:00N 44°54' W 079°54'0 0.0 320 / 131018.1 3.3 1.0
2017-Apr-22 09:00N 44°54' W 079°54'0 0.0 320 / 111017.6 3.2 1.2
2017-Apr-22 08:00N 44°54' W 079°54'0 0.0 330 / 121016.8 3.7 1.8
2017-Apr-22 07:00N 44°54' W 079°54'0 0.0 320 / 141016.9 4.0 2.4
2017-Apr-22 06:00N 44°54' W 079°54'0 0.0 310 / 151016.7 4.0 2.4
2017-Apr-22 05:00N 44°54' W 079°54'0 0.0 300 / 151016.3 3.5 2.5
2017-Apr-22 04:00N 44°54' W 079°54'0 0.0 290 / 141016.2 3.6 2.8
2017-Apr-22 03:00N 44°54' W 079°54'9 8.5 300 / 151016.0 3.3 3.0
2017-Apr-22 02:00N 44°54' W 080°06'1312.7 300 / 141016.1 2.7 2.6
2017-Apr-22 01:00N 45°06' W 080°12'1514.7 300 / 131015.1 3.0 2.3
2017-Apr-22 00:00N 45°18' W 080°24'4 4.2 290 / 111014.2 3.0 2.5
2017-Apr-21 23:00N 45°18' W 080°18'1312.7 270 / 121013.4 3.5 3.1
2017-Apr-21 22:00N 45°18' W 080°00'0 0.0 260 / 91012.6 3.8 3.5
2017-Apr-21 21:00N 45°18' W 080°00'0 0.0 270 / 81012.1 3.6 3.4
2017-Apr-21 20:00N 45°18' W 080°00'0 0.0 270 / 111011.4 3.5 3.3
2017-Apr-21 19:00N 45°18' W 080°00'0 0.0 260 / 131011.3 3.8 3.4
2017-Apr-21 18:00N 45°18' W 080°00'0 0.0 260 / 121010.1 4.1 4.0
2017-Apr-21 17:00N 45°18' W 080°00'0 0.0 240 / 101009.7 4.0 3.9
2017-Apr-21 16:00N 45°18' W 080°00'0 0.0 240 / 101009.4 4.0 3.9
2017-Apr-21 15:00N 45°18' W 080°00'0 0.0 240 / 91008.7 4.1 4.0
2017-Apr-21 14:00N 45°18' W 080°00'0 0.0 240 / 101008.4 4.2 4.2
2017-Apr-21 13:00N 45°18' W 080°00'0 0.0 260 / 81007.8 4.9 4.8
2017-Apr-21 12:00N 45°18' W 080°00'0 0.0 240 / 71007.7 5.7 5.6
2017-Apr-21 11:00N 45°18' W 080°00'0 0.0 250 / 71007.4 6.2 6.1
2017-Apr-21 10:00N 45°18' W 080°00'0 0.0 230 / 81006.8 7.0 6.9
2017-Apr-21 09:00N 45°18' W 080°00'0 0.0 150 / 71006.7 6.9 6.8
2017-Apr-21 08:00N 45°18' W 080°00'0 0.0 150 / 71007.2 6.9 6.8
2017-Apr-21 07:00N 45°18' W 080°00'0 0.0 140 / 81007.6 6.5 6.4
2017-Apr-21 06:00N 45°18' W 080°00'0 0.0 140 / 81008.5 6.3 6.1
2017-Apr-21 05:00N 45°18' W 080°00'0 0.0 150 / 101009.1 6.3 5.8
2017-Apr-21 04:00N 45°18' W 080°00'0 0.0 130 / 121009.1 6.1 5.3
2017-Apr-21 03:00N 45°18' W 080°00'0 0.0 110 / 91010.1 5.9 5.0
2017-Apr-21 02:00N 45°18' W 080°00'0 0.0 100 / 81011.2 5.7 4.8
2017-Apr-21 01:00N 45°18' W 080°00'0 0.0 100 / 81012.2 5.7 4.6
2017-Apr-21 00:00N 45°18' W 080°00'0 0.0 110 / 61013.1 5.8 4.7
2017-Apr-20 23:00N 45°18' W 080°00'0 0.0 100 / 61012.8 6.6 4.0
2017-Apr-20 22:00N 45°18' W 080°00'0 0.0 090 / 51015.5 7.2 3.2
2017-Apr-20 21:00N 45°18' W 080°00'0 0.0 100 / 91015.2 7.9 1.7
2017-Apr-20 20:00N 45°18' W 080°00'0 0.0 090 / 61016.5 7.7 1.6
2017-Apr-20 19:00N 45°18' W 080°00'0 0.0 090 / 61018.4 7.0 1.9
2017-Apr-20 18:00N 45°18' W 080°00'0 0.0 100 / 41019.3 6.7 1.4
2017-Apr-20 17:00N 45°18' W 080°00'0 0.0 090 / 61019.9 6.2 0.1
2017-Apr-20 16:00N 45°18' W 080°00'0 0.0 090 / 51020.0 5.3-0.1
2017-Apr-20 15:00N 45°18' W 080°00'0 0.0 090 / 51022.5 4.4-0.3
2017-Apr-20 14:00N 45°18' W 080°00'0 0.0 100 / 31024.0 3.9-0.3
2017-Apr-20 13:00N 45°18' W 080°00'0 0.0 070 / 21024.0 3.5-0.5
2017-Apr-20 12:00N 45°18' W 080°00'0 0.0 090 / 21023.0 3.1-0.7
2017-Apr-20 11:00N 45°18' W 080°00'0 0.0 090 / 31022.3 2.7-0.7
2017-Apr-20 10:00N 45°18' W 080°00'0 0.0 080 / 21022.8 2.9-0.5
2017-Apr-20 09:00N 45°18' W 080°00'0 0.0 040 / 21023.1 3.4-0.5
2017-Apr-20 08:00N 45°18' W 080°00'0 0.0 020 / 31024.0 4.0-0.5
2017-Apr-20 07:00N 45°18' W 080°00'0 0.0 050 / 21023.9 4.9 0.3
2017-Apr-20 06:00N 45°18' W 080°00'0 0.0 030 / 21023.0 5.5 0.9
2017-Apr-20 05:00N 45°18' W 080°00'0 0.0 020 / 41023.2 6.0 1.2
2017-Apr-20 04:00N 45°18' W 080°00'0 0.0 020 / 51023.0 6.6 2.2
2017-Apr-20 03:00N 45°18' W 080°00'0 0.0 020 / 51022.8 7.3 2.6
2017-Apr-20 02:00N 45°18' W 080°00'0 0.0 020 / 71021.7 8.1 3.0
2017-Apr-20 01:00N 45°18' W 080°00'0 0.0 020 / 51020.2 9.1 4.0
2017-Apr-20 00:00N 45°18' W 080°00'0 0.0 010 / 81018.4 11.5 5.1
2017-Apr-19 23:00N 45°18' W 080°00'0 0.0 310 / 31017.8 9.3 4.6
2017-Apr-19 22:00N 45°18' W 080°00'0 0.0 270 / 81017.4 8.3 5.1
2017-Apr-19 21:00N 45°18' W 080°00'0 0.0 260 / 111016.4 9.4 5.1
2017-Apr-19 20:00N 45°18' W 080°00'0 0.0 300 / 31015.4 9.2 4.9
2017-Apr-19 19:00N 45°18' W 080°00'0 0.0 260 / 141015.0 8.8 5.0
2017-Apr-19 18:00N 45°18' W 080°00'0 0.0 270 / 71014.4 10.0 5.9
2017-Apr-19 17:00N 45°18' W 080°00'0 0.0 270 / 111014.1 12.6 7.3
2017-Apr-19 16:00N 45°18' W 080°00'0 0.0 160 / 51013.8 11.6 8.0
2017-Apr-19 15:00N 45°18' W 080°00'0 0.0 130 / 51013.8 10.2 6.7
2017-Apr-19 14:00N 45°18' W 080°00'0 0.0 150 / 71013.6 10.5 4.9
2017-Apr-19 13:00N 45°18' W 080°00'0 0.0 150 / 81014.1 10.9 2.3
2017-Apr-19 12:00N 45°18' W 080°00'0 0.0 140 / 111014.3 10.2 1.0
2017-Apr-19 11:00N 45°18' W 080°00'0 0.0 130 / 111014.8 9.8 0.2
2017-Apr-19 10:00N 45°18' W 080°00'0 0.0 130 / 121016.3 9.1-0.4
2017-Apr-19 09:00N 45°18' W 080°00'0 0.0 120 / 101017.6 8.6-0.8
2017-Apr-19 08:00N 45°18' W 080°00'0 0.0 130 / 91018.4 8.2-1.0
2017-Apr-19 07:00N 45°18' W 080°00'0 0.0 130 / 111020.2 7.8-1.7
2017-Apr-19 06:00N 45°18' W 080°00'0 0.0 130 / 91021.8 7.6-3.3
2017-Apr-19 05:00N 45°18' W 080°00'0 0.0 130 / 101022.6 7.6-3.9
2017-Apr-19 04:00N 45°18' W 080°00'0 0.0 130 / 111023.6 7.8-2.9
2017-Apr-19 03:00N 45°18' W 080°00'0 0.0 130 / 91024.2 8.2-1.3
2017-Apr-19 02:00N 45°18' W 080°00'0 0.0 140 / 111024.6 9.0-1.1
2017-Apr-19 01:00N 45°18' W 080°00'0 0.0 130 / 111024.4 9.6-0.9
2017-Apr-19 00:00N 45°18' W 080°00'0 0.0 130 / 71025.7 10.5-1.7
2017-Apr-18 23:00N 45°18' W 080°00'0 0.0 130 / 91025.5 11.0-2.8
2017-Apr-18 22:00N 45°18' W 080°00'0 0.0 150 / 91026.1 11.1-3.4
2017-Apr-18 21:00N 45°18' W 080°00'0 0.0 150 / 81027.1 10.8-3.8
2017-Apr-18 20:00N 45°18' W 080°00'0 0.0 320 / 41028.3 9.3-3.5
2017-Apr-18 19:00N 45°18' W 080°00'0 0.0 140 / 31028.9 9.3-5.6
2017-Apr-18 18:00N 45°18' W 080°00'0 0.0 130 / 71029.5 7.7-6.9
2017-Apr-18 17:00N 45°18' W 080°00'0 0.0 140 / 81029.8 6.5-6.9
2017-Apr-18 16:00N 45°18' W 080°00'0 0.0 140 / 61031.2 5.5-7.4
2017-Apr-18 15:00N 45°18' W 080°00'0 0.0 140 / 71031.7 4.3-8.0
2017-Apr-18 14:00N 45°18' W 080°00'0 0.0 130 / 71032.1 3.1-7.9
2017-Apr-18 13:00N 45°18' W 080°00'4 4.2 100 / 21032.1 1.9-4.3
2017-Apr-18 12:00N 45°18' W 080°06'1010.3 080 / 41031.3 -1.2-2.5
2017-Apr-18 11:00N 45°24' W 080°18'   080 / 51030.8 -0.4-2.4
Track history (hours):
 
Tides and Currents Weather Stations Pressure Air Temp Water Temp Dewpoint Dewpoint Depression Visibility Wind Speed Wind Dir Waves Ship Positions

CCGS Samuel Risley (Canada)

Medium Navaids Tender - Light Icebreaker

Last reported at 2017-Apr-28 11:00 UTC. Time now 2017-Apr-28 12:16 UTC.
Position N 45°18' W 080°18'.

Length 69.73 m; beam 13.7 m; draft 5.2 m.

Type: SAR. MMSI: 316001890.

Wind from 200 at 19 knots

Barometer 1011.5 mb
Air temperature 6.0 ° C
Dewpoint 2.8 ° C

Date/timePositionNaut miles runAvg speedWind from/ knotsBaromVisibWave heightAir tempDewpointWater temp
2017-Apr-28 11:00N 45°18' W 080°18'1312.7 200 / 191011.5 6.0 2.8
2017-Apr-28 10:00N 45°18' W 080°00'0 0.0 230 / 61011.5 6.5 2.7
2017-Apr-28 09:00N 45°18' W 080°00'0 0.0 250 / 71011.2 6.8 2.4
2017-Apr-28 08:00N 45°18' W 080°00'0 0.0 270 / 101009.9 6.9 2.4
2017-Apr-28 07:00N 45°18' W 080°00'0 0.0 270 / 81009.6 6.7 3.3
2017-Apr-28 06:00N 45°18' W 080°00'0 0.0 260 / 111008.8 7.1 3.6
2017-Apr-28 05:00N 45°18' W 080°00'0 0.0 270 / 111007.5 7.9 4.4
2017-Apr-28 04:00N 45°18' W 080°00'0 0.0 260 / 91006.1 8.8 5.1
2017-Apr-28 03:00N 45°18' W 080°00'0 0.0 260 / 101004.9 9.3 5.7
2017-Apr-28 02:00N 45°18' W 080°00'0 0.0 250 / 111004.0 11.4 6.8
2017-Apr-28 01:00N 45°18' W 080°00'0 0.0 260 / 101002.3 14.310.3
2017-Apr-28 00:00N 45°18' W 080°00'0 0.0 150 / 71000.7 14.814.7
2017-Apr-27 23:00N 45°18' W 080°00'0 0.0 150 / 101000.6 14.814.4
2017-Apr-27 22:00N 45°18' W 080°00'0 0.0 220 / 111000.9 14.414.2
2017-Apr-27 21:00N 45°18' W 080°00'0 0.0 150 / 15996.7 25.813.0
2017-Apr-27 20:00N 45°18' W 080°00'0 0.0 140 / 16998.6 25.912.8
2017-Apr-27 19:00N 45°18' W 080°00'0 0.0 150 / 17999.3 26.213.4
2017-Apr-27 18:00N 45°18' W 080°00'0 0.0 160 / 111000.0 25.313.4
2017-Apr-27 17:00N 45°18' W 080°00'0 0.0 150 / 91000.9 24.913.7
2017-Apr-27 16:00N 45°18' W 080°00'0 0.0 140 / 121001.4 24.313.4
2017-Apr-27 15:00N 45°18' W 080°00'0 0.0 130 / 111001.7 22.913.7
2017-Apr-27 14:00N 45°18' W 080°00'0 0.0 130 / 111002.6 20.213.7
2017-Apr-27 13:00N 45°18' W 080°00'1312.7 130 / 91002.8 18.013.4
2017-Apr-27 12:00N 45°18' W 080°18'8 8.4 120 / 121002.2 15.312.8
2017-Apr-27 11:00N 45°18' W 080°30'1010.3 120 / 201001.6 9.3 9.2
2017-Apr-27 10:00N 45°24' W 080°42'7 7.3 120 / 221001.3 8.4 8.3
2017-Apr-27 09:00N 45°30' W 080°48'7 7.3 130 / 231001.0 7.8 7.8
2017-Apr-27 08:00N 45°36' W 080°54'1010.3 130 / 231001.0 7.4 7.4
2017-Apr-27 07:00N 45°42' W 081°06'7 7.3 130 / 221001.6 6.9 6.8
2017-Apr-27 06:00N 45°48' W 081°12'6 6.0 130 / 221001.8 7.1 7.0
2017-Apr-27 05:00N 45°54' W 081°12'8 8.4 120 / 191002.3 7.3 7.3
2017-Apr-27 04:00N 45°54' W 081°24'4 4.2 110 / 181002.6 7.9 7.8
2017-Apr-27 03:00N 45°54' W 081°30'4 4.2 110 / 171002.7 7.1 7.0
2017-Apr-27 02:00N 45°54' W 081°36'4 4.2 100 / 121003.4 7.2 7.1
2017-Apr-27 01:00N 45°54' W 081°42'8 8.4 120 / 161003.2 9.1 8.5
2017-Apr-27 00:00N 45°54' W 081°54'0 0.0 100 / 171002.9 10.0 8.9
2017-Apr-26 23:00N 45°54' W 081°54'0 0.0 090 / 151003.6 10.4 8.9
2017-Apr-26 22:00N 45°54' W 081°54'0 0.0 110 / 141003.8 12.810.0
2017-Apr-26 21:00N 45°54' W 081°54'0 0.0 120 / 191003.0 12.1 9.7
2017-Apr-26 20:00N 45°54' W 081°54'0 0.0 130 / 191003.7 13.910.5
2017-Apr-26 19:00N 45°54' W 081°54'0 0.0 120 / 181005.3 11.1 9.7
2017-Apr-26 18:00N 45°54' W 081°54'0 0.0 080 / 171006.3 7.9 7.9
2017-Apr-26 17:00N 45°54' W 081°54'0 0.0 080 / 131008.0 7.4 7.3
2017-Apr-26 16:00N 45°54' W 081°54'0 0.0 090 / 151008.3 6.9 6.8
2017-Apr-26 15:00N 45°54' W 081°54'0 0.0 080 / 111008.7 6.7 6.6
2017-Apr-26 14:00N 45°54' W 081°54'0 0.0 100 / 91009.1 7.1 7.0
2017-Apr-26 13:00N 45°54' W 081°54'0 0.0 120 / 81009.3 7.5 7.5
2017-Apr-26 12:00N 45°54' W 081°54'0 0.0 110 / 141008.5 7.3 7.3
2017-Apr-26 11:00N 45°54' W 081°54'0 0.0 110 / 111009.2 7.5 7.5
2017-Apr-26 10:00N 45°54' W 081°54'0 0.0 110 / 141009.2 7.6 7.6
2017-Apr-26 09:00N 45°54' W 081°54'0 0.0 110 / 111009.6 7.2 7.2
2017-Apr-26 08:00N 45°54' W 081°54'0 0.0 100 / 101010.0 7.0 7.0
2017-Apr-26 07:00N 45°54' W 081°54'0 0.0 110 / 101010.2 6.9 6.8
2017-Apr-26 06:00N 45°54' W 081°54'0 0.0 100 / 101010.6 6.6 6.5
2017-Apr-26 05:00N 45°54' W 081°54'0 0.0 090 / 91010.7 6.3 6.2
2017-Apr-26 04:00N 45°54' W 081°54'0 0.0 090 / 101011.1 6.1 6.0
2017-Apr-26 02:00N 45°54' W 081°54'0 0.0 100 / 101011.1 6.5 6.4
2017-Apr-26 01:00N 45°54' W 081°54'0 0.0 110 / 111010.9 6.9 6.9
2017-Apr-26 00:00N 45°54' W 081°54'0 0.0 090 / 91011.3 6.5 6.4
2017-Apr-25 23:00N 45°54' W 081°54'0 0.0 100 / 81011.8 6.7 6.6
2017-Apr-25 22:00N 45°54' W 081°54'0 0.0 100 / 71011.9 6.7 6.7
2017-Apr-25 21:00N 45°54' W 081°54'4 4.2 130 / 101012.2 8.4 7.4
2017-Apr-25 20:00N 45°54' W 081°48'7 7.3 110 / 81013.0 5.7 5.7
2017-Apr-25 19:00N 46°00' W 081°42'6 6.0 100 / 91013.9 5.0 4.9
2017-Apr-25 18:00N 45°54' W 081°42'0 0.0 130 / 111014.2 6.3 5.6
2017-Apr-25 17:00N 45°54' W 081°42'4 4.2 120 / 141015.0 6.8 3.1
2017-Apr-25 16:00N 45°54' W 081°36'6 6.0 140 / 141015.1 5.5 1.2
2017-Apr-25 15:00N 45°48' W 081°36'6 6.0 100 / 81015.5 4.5 1.3
2017-Apr-25 14:00N 45°54' W 081°36'4 4.2 090 / 131015.8 5.7-0.0
2017-Apr-25 13:00N 45°54' W 081°42'0 0.0 080 / 161015.9 5.2-0.2
2017-Apr-25 12:00N 45°54' W 081°42'0 0.0 080 / 81016.3 5.1-1.2
2017-Apr-25 11:00N 45°54' W 081°42'0 0.0 090 / 71016.5 4.4-0.9
2017-Apr-25 10:00N 45°54' W 081°42'0 0.0 100 / 171016.1 4.6-1.0
2017-Apr-25 09:00N 45°54' W 081°42'0 0.0 090 / 131016.6 4.7-1.2
2017-Apr-25 07:00N 45°54' W 081°42'0 0.0 090 / 111017.4 5.4-1.1
2017-Apr-25 06:00N 45°54' W 081°42'0 0.0 090 / 151017.2 4.9-2.1
2017-Apr-25 05:00N 45°54' W 081°42'0 0.0 080 / 151017.4 5.2-2.7
2017-Apr-25 04:00N 45°54' W 081°42'0 0.0 070 / 131017.7 6.0-2.2
2017-Apr-25 03:00N 45°54' W 081°42'0 0.0 070 / 151017.9 6.9-1.9
2017-Apr-25 02:00N 45°54' W 081°42'8 8.4 070 / 111018.5 7.3-1.4
2017-Apr-25 01:00N 45°54' W 081°30'8 8.4 060 / 141018.6 7.3-0.5
2017-Apr-25 00:00N 45°54' W 081°18'1413.9 060 / 151018.9 7.9-1.0
2017-Apr-24 23:00N 45°48' W 081°00'8 8.4 050 / 121019.4 7.7-0.1
2017-Apr-24 22:00N 45°48' W 080°48'7 7.3 050 / 121019.6 11.1-0.9
2017-Apr-24 21:00N 45°42' W 080°42'0 0.0 050 / 111020.3 11.4-0.9
2017-Apr-24 20:00N 45°42' W 080°42'0 0.0 040 / 101021.1 10.3-1.5
2017-Apr-24 19:00N 45°42' W 080°42'0 0.0 050 / 91022.1 9.3-2.8
2017-Apr-24 18:00N 45°42' W 080°42'0 0.0 020 / 71022.8 7.9-4.2
2017-Apr-24 17:00N 45°42' W 080°42'0 0.0 040 / 111023.4 6.6-5.4
2017-Apr-24 16:00N 45°42' W 080°42'0 0.0 040 / 111023.9 4.9-6.2
2017-Apr-24 15:00N 45°42' W 080°42'0 0.0 060 / 141024.3 3.4-7.0
2017-Apr-24 14:00N 45°42' W 080°42'0 0.0 060 / 141024.5 2.3-7.1
2017-Apr-24 13:00N 45°42' W 080°42'6 6.0 070 / 151024.7 1.3-7.1
2017-Apr-24 12:00N 45°48' W 080°42'0 0.0 050 / 141024.1 0.1-6.0
2017-Apr-24 11:00N 45°48' W 080°42'0 0.0 050 / 131024.1 -0.2-5.5
2017-Apr-24 10:00N 45°48' W 080°42'0 0.0 060 / 131023.3 -0.3-5.4
2017-Apr-24 09:00N 45°48' W 080°42'0 0.0 070 / 121023.3 -0.0-4.4
2017-Apr-24 08:00N 45°48' W 080°42'0 0.0 050 / 121022.5 0.1-4.2
2017-Apr-24 07:00N 45°48' W 080°42'0 0.0 050 / 131022.4 0.3-3.7
2017-Apr-24 06:00N 45°48' W 080°42'0 0.0 040 / 151022.4 0.6-5.0
2017-Apr-24 05:00N 45°48' W 080°42'0 0.0 040 / 161022.7 1.0-3.9
2017-Apr-24 04:00N 45°48' W 080°42'0 0.0 050 / 161022.2 2.2-1.3
2017-Apr-24 03:00N 45°48' W 080°42'0 0.0 040 / 141021.8 3.4-0.5
2017-Apr-24 02:00N 45°48' W 080°42'0 0.0 040 / 171021.4 4.5-0.4
2017-Apr-24 01:00N 45°48' W 080°42'0 0.0 020 / 141020.4 6.1-0.2
2017-Apr-24 00:00N 45°48' W 080°42'0 0.0 030 / 101019.9 7.6 0.3
2017-Apr-23 23:00N 45°48' W 080°42'0 0.0 350 / 111019.5 7.5 0.6
2017-Apr-23 22:00N 45°48' W 080°42'0 0.0 350 / 91019.3 7.8 1.2
2017-Apr-23 21:00N 45°48' W 080°42'6 6.0 350 / 101018.7 7.3 1.8
2017-Apr-23 20:00N 45°42' W 080°42'0 0.0 350 / 141018.2 6.5 3.4
2017-Apr-23 19:00N 45°42' W 080°42'0 0.0 270 / 101017.9 4.4 2.1
2017-Apr-23 18:00N 45°42' W 080°42'7 7.3 200 / 41017.8 3.6 2.1
2017-Apr-23 17:00N 45°36' W 080°36'6 6.0 270 / 101018.0 6.8 2.4
2017-Apr-23 16:00N 45°30' W 080°36'4 4.2 260 / 131017.7 6.1 1.3
2017-Apr-23 15:00N 45°30' W 080°42'1312.6 250 / 161017.5 5.4 1.3
2017-Apr-23 14:00N 45°30' W 081°00'7 7.3 220 / 131016.8 5.2 0.8
2017-Apr-23 13:00N 45°24' W 080°54'1312.7 160 / 131017.0 4.3-0.2
2017-Apr-23 12:00N 45°12' W 080°48'1312.7 150 / 121018.1 3.6-0.1
2017-Apr-23 11:00N 45°00' W 080°42'7 7.4 160 / 121018.3 3.1-0.5
2017-Apr-23 10:00N 44°54' W 080°36'4 4.3 210 / 151018.4 3.0-1.0
2017-Apr-23 09:00N 44°54' W 080°30'0 0.0 220 / 91018.8 2.8-0.9
2017-Apr-23 08:00N 44°54' W 080°30'0 0.0 240 / 41019.1 2.5-0.5
2017-Apr-23 07:00N 44°54' W 080°30'0 0.0 210 / 81019.2 2.6-0.5
2017-Apr-23 06:00N 44°54' W 080°30'0 0.0 190 / 71019.6 3.3-1.2
2017-Apr-23 05:00N 44°54' W 080°30'0 0.0 210 / 81019.8 3.3-0.7
2017-Apr-23 04:00N 44°54' W 080°30'0 0.0 230 / 81020.0 4.0-1.4
2017-Apr-23 03:00N 44°54' W 080°30'0 0.0 230 / 91020.4 4.5-1.6
2017-Apr-23 02:00N 44°54' W 080°30'1312.8 250 / 151020.1 5.4-1.5
2017-Apr-23 01:00N 44°54' W 080°12'4 4.3 230 / 71020.0 4.1-0.3
2017-Apr-23 00:00N 44°54' W 080°06'9 8.5 290 / 61020.0 5.3-1.6
2017-Apr-22 23:00N 44°54' W 079°54'6 6.0 280 / 131019.2 8.0-3.3
2017-Apr-22 22:00N 44°48' W 079°54'6 6.0 310 / 91019.7 9.1-1.7
2017-Apr-22 21:00N 44°54' W 079°54'0 0.0 270 / 131020.1 4.9-0.3
2017-Apr-22 20:00N 44°54' W 079°54'0 0.0 270 / 121020.3 4.3 1.1
2017-Apr-22 19:00N 44°54' W 079°54'0 0.0 270 / 101020.6 4.2 1.5
2017-Apr-22 18:00N 44°54' W 079°54'0 0.0 280 / 141020.6 4.0 0.9
2017-Apr-22 17:00N 44°54' W 079°54'0 0.0 270 / 141020.4 3.6 1.3
2017-Apr-22 16:00N 44°54' W 079°54'0 0.0 280 / 131020.9 3.3 1.5
2017-Apr-22 15:00N 44°54' W 079°54'0 0.0 310 / 11020.7 3.7 1.3
2017-Apr-22 14:00N 44°54' W 079°54'0 0.0 290 / 121019.7 3.1 1.2
2017-Apr-22 13:00N 44°54' W 079°54'0 0.0 330 / 51019.9 4.0 0.8
2017-Apr-22 12:00N 44°54' W 079°54'0 0.0 310 / 131019.3 3.2 1.6
2017-Apr-22 11:00N 44°54' W 079°54'0 0.0 320 / 111018.5 3.3 1.3
2017-Apr-22 10:00N 44°54' W 079°54'0 0.0 320 / 131018.1 3.3 1.0
2017-Apr-22 09:00N 44°54' W 079°54'0 0.0 320 / 111017.6 3.2 1.2
2017-Apr-22 08:00N 44°54' W 079°54'0 0.0 330 / 121016.8 3.7 1.8
2017-Apr-22 07:00N 44°54' W 079°54'0 0.0 320 / 141016.9 4.0 2.4
2017-Apr-22 06:00N 44°54' W 079°54'0 0.0 310 / 151016.7 4.0 2.4
2017-Apr-22 05:00N 44°54' W 079°54'0 0.0 300 / 151016.3 3.5 2.5
2017-Apr-22 04:00N 44°54' W 079°54'0 0.0 290 / 141016.2 3.6 2.8
2017-Apr-22 03:00N 44°54' W 079°54'9 8.5 300 / 151016.0 3.3 3.0
2017-Apr-22 02:00N 44°54' W 080°06'1312.7 300 / 141016.1 2.7 2.6
2017-Apr-22 01:00N 45°06' W 080°12'1514.7 300 / 131015.1 3.0 2.3
2017-Apr-22 00:00N 45°18' W 080°24'4 4.2 290 / 111014.2 3.0 2.5
2017-Apr-21 23:00N 45°18' W 080°18'1312.7 270 / 121013.4 3.5 3.1
2017-Apr-21 22:00N 45°18' W 080°00'0 0.0 260 / 91012.6 3.8 3.5
2017-Apr-21 21:00N 45°18' W 080°00'0 0.0 270 / 81012.1 3.6 3.4
2017-Apr-21 20:00N 45°18' W 080°00'0 0.0 270 / 111011.4 3.5 3.3
2017-Apr-21 19:00N 45°18' W 080°00'0 0.0 260 / 131011.3 3.8 3.4
2017-Apr-21 18:00N 45°18' W 080°00'0 0.0 260 / 121010.1 4.1 4.0
2017-Apr-21 17:00N 45°18' W 080°00'0 0.0 240 / 101009.7 4.0 3.9
2017-Apr-21 16:00N 45°18' W 080°00'0 0.0 240 / 101009.4 4.0 3.9
2017-Apr-21 15:00N 45°18' W 080°00'0 0.0 240 / 91008.7 4.1 4.0
2017-Apr-21 14:00N 45°18' W 080°00'0 0.0 240 / 101008.4 4.2 4.2
2017-Apr-21 13:00N 45°18' W 080°00'0 0.0 260 / 81007.8 4.9 4.8
2017-Apr-21 12:00N 45°18' W 080°00'0 0.0 240 / 71007.7 5.7 5.6
2017-Apr-21 11:00N 45°18' W 080°00'0 0.0 250 / 71007.4 6.2 6.1
2017-Apr-21 10:00N 45°18' W 080°00'0 0.0 230 / 81006.8 7.0 6.9
2017-Apr-21 09:00N 45°18' W 080°00'0 0.0 150 / 71006.7 6.9 6.8
2017-Apr-21 08:00N 45°18' W 080°00'0 0.0 150 / 71007.2 6.9 6.8
2017-Apr-21 07:00N 45°18' W 080°00'0 0.0 140 / 81007.6 6.5 6.4
2017-Apr-21 06:00N 45°18' W 080°00'0 0.0 140 / 81008.5 6.3 6.1
2017-Apr-21 05:00N 45°18' W 080°00'0 0.0 150 / 101009.1 6.3 5.8
2017-Apr-21 04:00N 45°18' W 080°00'0 0.0 130 / 121009.1 6.1 5.3
2017-Apr-21 03:00N 45°18' W 080°00'0 0.0 110 / 91010.1 5.9 5.0
2017-Apr-21 02:00N 45°18' W 080°00'0 0.0 100 / 81011.2 5.7 4.8
2017-Apr-21 01:00N 45°18' W 080°00'0 0.0 100 / 81012.2 5.7 4.6
2017-Apr-21 00:00N 45°18' W 080°00'0 0.0 110 / 61013.1 5.8 4.7
2017-Apr-20 23:00N 45°18' W 080°00'0 0.0 100 / 61012.8 6.6 4.0
2017-Apr-20 22:00N 45°18' W 080°00'0 0.0 090 / 51015.5 7.2 3.2
2017-Apr-20 21:00N 45°18' W 080°00'0 0.0 100 / 91015.2 7.9 1.7
2017-Apr-20 20:00N 45°18' W 080°00'0 0.0 090 / 61016.5 7.7 1.6
2017-Apr-20 19:00N 45°18' W 080°00'0 0.0 090 / 61018.4 7.0 1.9
2017-Apr-20 18:00N 45°18' W 080°00'0 0.0 100 / 41019.3 6.7 1.4
2017-Apr-20 17:00N 45°18' W 080°00'0 0.0 090 / 61019.9 6.2 0.1
2017-Apr-20 16:00N 45°18' W 080°00'0 0.0 090 / 51020.0 5.3-0.1
2017-Apr-20 15:00N 45°18' W 080°00'0 0.0 090 / 51022.5 4.4-0.3
2017-Apr-20 14:00N 45°18' W 080°00'0 0.0 100 / 31024.0 3.9-0.3
2017-Apr-20 13:00N 45°18' W 080°00'0 0.0 070 / 21024.0 3.5-0.5
2017-Apr-20 12:00N 45°18' W 080°00'0 0.0 090 / 21023.0 3.1-0.7
2017-Apr-20 11:00N 45°18' W 080°00'0 0.0 090 / 31022.3 2.7-0.7
2017-Apr-20 10:00N 45°18' W 080°00'0 0.0 080 / 21022.8 2.9-0.5
2017-Apr-20 09:00N 45°18' W 080°00'0 0.0 040 / 21023.1 3.4-0.5
2017-Apr-20 08:00N 45°18' W 080°00'0 0.0 020 / 31024.0 4.0-0.5
2017-Apr-20 07:00N 45°18' W 080°00'0 0.0 050 / 21023.9 4.9 0.3
2017-Apr-20 06:00N 45°18' W 080°00'0 0.0 030 / 21023.0 5.5 0.9
2017-Apr-20 05:00N 45°18' W 080°00'0 0.0 020 / 41023.2 6.0 1.2
2017-Apr-20 04:00N 45°18' W 080°00'0 0.0 020 / 51023.0 6.6 2.2
2017-Apr-20 03:00N 45°18' W 080°00'0 0.0 020 / 51022.8 7.3 2.6
2017-Apr-20 02:00N 45°18' W 080°00'0 0.0 020 / 71021.7 8.1 3.0
2017-Apr-20 01:00N 45°18' W 080°00'0 0.0 020 / 51020.2 9.1 4.0
2017-Apr-20 00:00N 45°18' W 080°00'0 0.0 010 / 81018.4 11.5 5.1
2017-Apr-19 23:00N 45°18' W 080°00'0 0.0 310 / 31017.8 9.3 4.6
2017-Apr-19 22:00N 45°18' W 080°00'0 0.0 270 / 81017.4 8.3 5.1
2017-Apr-19 21:00N 45°18' W 080°00'0 0.0 260 / 111016.4 9.4 5.1
2017-Apr-19 20:00N 45°18' W 080°00'0 0.0 300 / 31015.4 9.2 4.9
2017-Apr-19 19:00N 45°18' W 080°00'0 0.0 260 / 141015.0 8.8 5.0
2017-Apr-19 18:00N 45°18' W 080°00'0 0.0 270 / 71014.4 10.0 5.9
2017-Apr-19 17:00N 45°18' W 080°00'0 0.0 270 / 111014.1 12.6 7.3
2017-Apr-19 16:00N 45°18' W 080°00'0 0.0 160 / 51013.8 11.6 8.0
2017-Apr-19 15:00N 45°18' W 080°00'0 0.0 130 / 51013.8 10.2 6.7
2017-Apr-19 14:00N 45°18' W 080°00'0 0.0 150 / 71013.6 10.5 4.9
2017-Apr-19 13:00N 45°18' W 080°00'0 0.0 150 / 81014.1 10.9 2.3
2017-Apr-19 12:00N 45°18' W 080°00'0 0.0 140 / 111014.3 10.2 1.0
2017-Apr-19 11:00N 45°18' W 080°00'0 0.0 130 / 111014.8 9.8 0.2
2017-Apr-19 10:00N 45°18' W 080°00'0 0.0 130 / 121016.3 9.1-0.4
2017-Apr-19 09:00N 45°18' W 080°00'0 0.0 120 / 101017.6 8.6-0.8
2017-Apr-19 08:00N 45°18' W 080°00'0 0.0 130 / 91018.4 8.2-1.0
2017-Apr-19 07:00N 45°18' W 080°00'0 0.0 130 / 111020.2 7.8-1.7
2017-Apr-19 06:00N 45°18' W 080°00'0 0.0 130 / 91021.8 7.6-3.3
2017-Apr-19 05:00N 45°18' W 080°00'0 0.0 130 / 101022.6 7.6-3.9
2017-Apr-19 04:00N 45°18' W 080°00'0 0.0 130 / 111023.6 7.8-2.9
2017-Apr-19 03:00N 45°18' W 080°00'0 0.0 130 / 91024.2 8.2-1.3
2017-Apr-19 02:00N 45°18' W 080°00'0 0.0 140 / 111024.6 9.0-1.1
2017-Apr-19 01:00N 45°18' W 080°00'0 0.0 130 / 111024.4 9.6-0.9
2017-Apr-19 00:00N 45°18' W 080°00'0 0.0 130 / 71025.7 10.5-1.7
2017-Apr-18 23:00N 45°18' W 080°00'0 0.0 130 / 91025.5 11.0-2.8
2017-Apr-18 22:00N 45°18' W 080°00'0 0.0 150 / 91026.1 11.1-3.4
2017-Apr-18 21:00N 45°18' W 080°00'0 0.0 150 / 81027.1 10.8-3.8
2017-Apr-18 20:00N 45°18' W 080°00'0 0.0 320 / 41028.3 9.3-3.5
2017-Apr-18 19:00N 45°18' W 080°00'0 0.0 140 / 31028.9 9.3-5.6
2017-Apr-18 18:00N 45°18' W 080°00'0 0.0 130 / 71029.5 7.7-6.9
2017-Apr-18 17:00N 45°18' W 080°00'0 0.0 140 / 81029.8 6.5-6.9
2017-Apr-18 16:00N 45°18' W 080°00'0 0.0 140 / 61031.2 5.5-7.4
2017-Apr-18 15:00N 45°18' W 080°00'0 0.0 140 / 71031.7 4.3-8.0
2017-Apr-18 14:00N 45°18' W 080°00'0 0.0 130 / 71032.1 3.1-7.9
2017-Apr-18 13:00N 45°18' W 080°00'4 4.2 100 / 21032.1 1.9-4.3
2017-Apr-18 12:00N 45°18' W 080°06'1010.3 080 / 41031.3 -1.2-2.5
2017-Apr-18 11:00N 45°24' W 080°18'   080 / 51030.8 -0.4-2.4

Dump ship's entire track history